createdAt,value
2018-10-18T00:01:38.642Z,28.87
2018-10-18T00:04:42.535Z,31.10
2018-10-18T00:07:46.184Z,31.70
2018-10-18T00:10:49.835Z,37.75
2018-10-18T00:13:55.253Z,42.37
2018-10-18T00:17:00.275Z,36.60
2018-10-18T00:20:04.171Z,36.77
2018-10-18T00:23:07.926Z,39.45
2018-10-18T00:26:12.021Z,42.83
2018-10-18T00:29:16.250Z,39.98
2018-10-18T00:32:20.615Z,35.08
2018-10-18T00:35:24.730Z,36.43
2018-10-18T00:38:29.276Z,38.75
2018-10-18T00:41:32.810Z,42.20
2018-10-18T00:44:36.893Z,42.37
2018-10-18T00:47:42.215Z,39.80
2018-10-18T00:50:46.290Z,43.67
2018-10-18T00:53:51.542Z,39.10
2018-10-18T00:56:56.747Z,46.13
2018-10-18T00:59:59.708Z,43.65
2018-10-18T01:03:05.306Z,43.40
2018-10-18T01:06:09.737Z,36.83
2018-10-18T01:09:14.942Z,36.70
2018-10-18T01:12:18.992Z,38.58
2018-10-18T01:15:22.571Z,42.80
2018-10-18T01:18:26.334Z,37.38
2018-10-18T01:21:30.794Z,38.60
2018-10-18T01:24:36.315Z,37.42
2018-10-18T01:27:40.506Z,37.33
2018-10-18T01:30:43.458Z,34.30
2018-10-18T01:33:47.042Z,36.33
2018-10-18T01:36:50.622Z,36.70
2018-10-18T01:39:53.578Z,37.00
2018-10-18T01:42:57.096Z,34.63
2018-10-18T01:46:01.039Z,34.13
2018-10-18T01:49:05.539Z,34.90
2018-10-18T01:52:09.911Z,32.57
2018-10-18T01:55:13.314Z,33.83
2018-10-18T01:58:17.294Z,33.02
2018-10-18T02:01:20.967Z,31.27
2018-10-18T02:04:24.530Z,33.70
2018-10-18T02:07:28.770Z,36.10
2018-10-18T02:10:32.703Z,31.87
2018-10-18T02:13:36.570Z,31.67
2018-10-18T02:16:41.296Z,30.33
2018-10-18T02:19:44.709Z,30.87
2018-10-18T02:22:49.979Z,34.90
2018-10-18T02:25:54.471Z,34.50
2018-10-18T02:28:58.269Z,33.87
2018-10-18T02:32:02.367Z,32.63
2018-10-18T02:35:07.271Z,27.87
2018-10-18T02:38:11.543Z,32.23
2018-10-18T02:41:14.527Z,30.10
2018-10-18T02:44:17.572Z,29.70
2018-10-18T02:47:23.546Z,31.23
2018-10-18T02:50:28.159Z,31.47
2018-10-18T02:53:33.606Z,34.97
2018-10-18T02:56:37.863Z,37.07
2018-10-18T02:59:42.712Z,31.47
2018-10-18T03:02:46.888Z,31.93
2018-10-18T03:05:50.708Z,33.23
2018-10-18T03:08:55.019Z,35.83
2018-10-18T03:11:59.639Z,36.77
2018-10-18T03:15:03.272Z,28.60
2018-10-18T03:18:09.100Z,25.40
2018-10-18T03:21:13.707Z,30.53
2018-10-18T03:24:17.951Z,33.27
2018-10-18T03:27:23.250Z,32.00
2018-10-18T03:30:28.439Z,34.70
2018-10-18T03:33:32.969Z,29.93
2018-10-18T03:36:37.863Z,27.03
2018-10-18T03:39:41.467Z,27.90
2018-10-18T03:42:47.300Z,31.60
2018-10-18T03:45:52.557Z,31.97
2018-10-18T03:48:57.860Z,34.10
2018-10-18T03:52:01.448Z,33.63
2018-10-18T03:55:05.066Z,33.07
2018-10-18T03:58:09.012Z,32.40
2018-10-18T04:01:12.474Z,34.03
2018-10-18T04:04:17.312Z,33.65
2018-10-18T04:07:20.939Z,34.03
2018-10-18T04:10:26.487Z,36.73
2018-10-18T04:13:30.971Z,32.17
2018-10-18T04:16:35.643Z,32.17
2018-10-18T04:19:39.359Z,30.73
2018-10-18T04:22:44.519Z,36.37
2018-10-18T04:25:49.131Z,34.17
2018-10-18T04:28:53.785Z,32.40
2018-10-18T04:31:57.427Z,34.90
2018-10-18T04:35:02.164Z,33.23
2018-10-18T04:38:07.130Z,33.03
2018-10-18T04:41:11.983Z,32.53
2018-10-18T04:44:24.116Z,33.27
2018-10-18T04:47:29.623Z,30.13
2018-10-18T04:50:33.122Z,33.03
2018-10-18T04:53:37.590Z,33.10
2018-10-18T04:56:41.862Z,32.07
2018-10-18T04:59:45.443Z,32.47
2018-10-18T05:02:50.384Z,33.87
2018-10-18T05:05:55.527Z,30.27
2018-10-18T05:09:01.367Z,29.63
2018-10-18T05:12:06.903Z,33.17
2018-10-18T05:15:11.751Z,33.13
2018-10-18T05:18:15.459Z,30.73
2018-10-18T05:21:20.879Z,31.43
2018-10-18T05:24:25.024Z,29.90
2018-10-18T05:27:29.478Z,31.10
2018-10-18T05:30:33.903Z,31.37
2018-10-18T05:33:38.258Z,31.23
2018-10-18T05:36:43.029Z,33.80
2018-10-18T05:39:47.206Z,30.73
2018-10-18T05:42:51.499Z,31.33
2018-10-18T05:45:55.619Z,31.87
2018-10-18T05:49:00.803Z,33.70
2018-10-18T05:52:05.346Z,34.20
2018-10-18T05:55:09.948Z,31.73
2018-10-18T05:58:14.050Z,34.53
2018-10-18T06:01:17.105Z,33.53
2018-10-18T06:04:20.323Z,33.87
2018-10-18T06:07:23.499Z,33.23
2018-10-18T06:11:37.682Z,33.77
2018-10-18T06:14:40.707Z,32.97
2018-10-18T06:17:44.582Z,33.43
2018-10-18T06:20:47.636Z,34.97
2018-10-18T06:23:50.764Z,36.77
2018-10-18T06:26:53.980Z,36.97
2018-10-18T06:29:57.150Z,37.93
2018-10-18T06:33:00.240Z,39.37
2018-10-18T06:36:03.546Z,36.73
2018-10-18T06:39:08.604Z,33.63
2018-10-18T06:42:11.879Z,33.70
2018-10-18T06:45:16.191Z,36.30
2018-10-18T06:48:19.196Z,36.60
2018-10-18T06:51:22.231Z,31.97
2018-10-18T06:54:25.250Z,31.47
2018-10-18T06:57:28.330Z,33.10
2018-10-18T07:00:31.537Z,34.13
2018-10-18T07:03:34.514Z,34.33
2018-10-18T07:06:37.545Z,34.67
2018-10-18T07:09:40.599Z,34.33
2018-10-18T07:12:43.726Z,34.07
2018-10-18T07:15:46.679Z,34.13
2018-10-18T07:18:49.814Z,33.13
2018-10-18T07:21:52.866Z,33.18
2018-10-18T07:24:55.899Z,34.63
2018-10-18T07:27:58.958Z,34.27
2018-10-18T07:31:01.968Z,32.43
2018-10-18T07:34:05.214Z,36.30
2018-10-18T07:37:08.270Z,33.60
2018-10-18T07:40:13.227Z,33.42
2018-10-18T07:43:16.390Z,34.27
2018-10-18T07:46:19.850Z,36.15
2018-10-18T07:49:24.551Z,37.13
2018-10-18T07:52:27.590Z,39.63
2018-10-18T07:55:30.719Z,39.50
2018-10-18T07:58:34.391Z,41.20
2018-10-18T08:01:37.427Z,43.40
2018-10-18T08:04:40.472Z,46.60
2018-10-18T08:07:43.495Z,45.23
2018-10-18T08:10:47.181Z,46.75
2018-10-18T08:13:50.215Z,47.08
2018-10-18T08:16:54.365Z,50.85
2018-10-18T08:19:57.391Z,52.78
2018-10-18T08:23:00.356Z,52.00
2018-10-18T08:26:03.355Z,53.30
2018-10-18T08:29:07.486Z,50.75
2018-10-18T08:32:10.499Z,51.10
2018-10-18T08:35:13.526Z,51.83
2018-10-18T08:38:16.977Z,50.23
2018-10-18T08:41:19.943Z,47.40
2018-10-18T08:44:23.296Z,46.98
2018-10-18T08:47:26.310Z,49.60
2018-10-18T08:50:30.051Z,48.35
2018-10-18T08:53:33.011Z,46.68
2018-10-18T08:56:36.068Z,44.33
2018-10-18T08:59:40.010Z,43.15
2018-10-18T09:02:43.266Z,40.10
2018-10-18T09:05:46.302Z,42.23
2018-10-18T09:08:49.314Z,41.35
2018-10-18T09:11:52.306Z,40.48
2018-10-18T09:14:55.508Z,40.83
2018-10-18T09:17:58.458Z,43.13
2018-10-18T09:21:01.502Z,41.88
2018-10-18T09:24:05.327Z,41.83
2018-10-18T09:27:08.610Z,42.20
2018-10-18T09:30:12.907Z,43.87
2018-10-18T09:33:17.038Z,43.83
2018-10-18T09:36:19.990Z,42.93
2018-10-18T09:39:23.735Z,45.50
2018-10-18T09:42:26.693Z,44.00
2018-10-18T09:45:29.815Z,41.92
2018-10-18T09:48:32.770Z,41.53
2018-10-18T09:51:36.001Z,42.33
2018-10-18T09:54:38.950Z,40.52
2018-10-18T09:57:42.086Z,41.35
2018-10-18T10:00:50.582Z,40.20
2018-10-18T10:03:53.798Z,37.60
2018-10-18T10:06:56.892Z,34.67
2018-10-18T10:09:59.983Z,37.10
2018-10-18T10:13:03.275Z,35.50
2018-10-18T10:16:06.299Z,34.05
2018-10-18T10:19:09.393Z,32.48
2018-10-18T10:22:12.348Z,31.70
2018-10-18T10:25:15.490Z,31.30
2018-10-18T10:28:18.530Z,31.95
2018-10-18T10:31:21.490Z,30.52
2018-10-18T10:34:24.535Z,29.52
2018-10-18T10:37:27.587Z,27.98
2018-10-18T10:40:30.611Z,27.77
2018-10-18T10:43:33.558Z,27.15
2018-10-18T10:46:37.911Z,25.95
2018-10-18T10:49:40.969Z,24.70
2018-10-18T10:52:44.306Z,23.38
2018-10-18T10:55:47.262Z,23.98
2018-10-18T10:58:50.897Z,23.12
2018-10-18T11:01:54.002Z,21.90
2018-10-18T11:04:57.075Z,21.52
2018-10-18T11:08:00.147Z,19.77
2018-10-18T11:11:03.370Z,20.90
2018-10-18T11:14:06.396Z,21.75
2018-10-18T11:17:09.434Z,23.90
2018-10-18T11:20:12.501Z,23.40
2018-10-18T11:23:16.094Z,23.52
2018-10-18T11:26:19.185Z,24.52
2018-10-18T11:29:22.234Z,24.63
2018-10-18T11:32:25.187Z,24.70
2018-10-18T11:35:28.244Z,24.43
2018-10-18T11:38:31.270Z,24.27
2018-10-18T11:41:34.299Z,24.75
2018-10-18T11:44:40.154Z,24.75
2018-10-18T11:47:43.254Z,24.47
2018-10-18T11:50:47.159Z,24.02
2018-10-18T11:53:50.185Z,24.52
2018-10-18T11:56:53.823Z,24.67
2018-10-18T11:59:57.156Z,23.07
2018-10-18T12:03:00.223Z,24.35
2018-10-18T12:06:03.356Z,24.80
2018-10-18T12:09:09.094Z,24.37
2018-10-18T12:12:14.134Z,24.67
2018-10-18T12:15:17.857Z,25.17
2018-10-18T12:18:20.930Z,26.82
2018-10-18T12:21:24.030Z,26.68
2018-10-18T12:24:27.843Z,26.65
2018-10-18T12:27:30.804Z,28.62
2018-10-18T12:30:33.919Z,26.75
2018-10-18T12:33:36.890Z,28.15
2018-10-18T12:36:40.011Z,30.90
2018-10-18T12:39:43.168Z,28.92
2018-10-18T12:42:47.321Z,28.00
2018-10-18T12:45:50.367Z,29.70
2018-10-18T12:48:53.447Z,29.67
2018-10-18T12:51:56.450Z,29.80
2018-10-18T12:54:59.505Z,30.17
2018-10-18T12:58:02.642Z,28.23
2018-10-18T13:01:05.766Z,31.23
2018-10-18T13:04:09.494Z,33.48
2018-10-18T13:07:12.678Z,30.85
2018-10-18T13:10:15.723Z,31.25
2018-10-18T13:13:18.763Z,31.48
2018-10-18T13:16:21.814Z,32.70
2018-10-18T13:19:25.142Z,30.43
2018-10-18T13:22:28.106Z,30.82
2018-10-18T13:25:31.460Z,29.90
2018-10-18T13:28:34.515Z,29.52
2018-10-18T13:31:37.507Z,28.55
2018-10-18T13:34:40.538Z,29.52
2018-10-18T13:37:43.603Z,29.90
2018-10-18T13:40:46.736Z,28.67
2018-10-18T13:43:49.703Z,28.70
2018-10-18T13:46:52.739Z,29.37
2018-10-18T13:49:56.375Z,31.00
2018-10-18T13:53:00.363Z,32.55
2018-10-18T13:56:04.322Z,31.87
2018-10-18T13:59:17.378Z,32.38
2018-10-18T14:02:20.586Z,36.13
2018-10-18T14:05:25.011Z,33.67
2018-10-18T14:08:28.430Z,36.10
2018-10-18T14:11:31.419Z,36.40
2018-10-18T14:14:34.642Z,35.65
2018-10-18T14:17:38.105Z,35.23
2018-10-18T14:20:41.126Z,35.70
2018-10-18T14:23:44.454Z,36.60
2018-10-18T14:26:47.855Z,36.17
2018-10-18T14:29:50.915Z,38.35
2018-10-18T14:32:54.038Z,36.33
2018-10-18T14:35:57.198Z,38.90
2018-10-18T14:39:00.373Z,38.08
2018-10-18T14:42:03.495Z,38.83
2018-10-18T14:45:07.423Z,37.25
2018-10-18T14:48:10.495Z,39.88
2018-10-18T14:51:13.670Z,39.53
2018-10-18T14:54:16.891Z,39.25
2018-10-18T14:57:19.898Z,40.88
2018-10-18T15:00:23.272Z,45.10
2018-10-18T15:03:26.291Z,42.40
2018-10-18T15:06:29.351Z,40.90
2018-10-18T15:09:32.367Z,40.28
2018-10-18T15:12:35.367Z,40.12
2018-10-18T15:15:38.578Z,40.20
2018-10-18T15:18:41.636Z,39.55
2018-10-18T15:21:44.703Z,40.78
2018-10-18T15:24:47.699Z,40.33
2018-10-18T15:27:52.167Z,39.78
2018-10-18T15:30:55.634Z,39.63
2018-10-18T15:33:58.660Z,38.67
2018-10-18T15:37:01.723Z,38.70
2018-10-18T15:40:05.396Z,41.73
2018-10-18T15:43:08.423Z,41.33
2018-10-18T15:46:11.552Z,40.30
2018-10-18T15:49:14.599Z,40.73
2018-10-18T15:52:18.118Z,40.63
2018-10-18T15:55:21.574Z,39.35
2018-10-18T15:58:24.933Z,36.13
2018-10-18T16:01:28.499Z,37.28
2018-10-18T16:04:31.760Z,32.55
2018-10-18T16:07:34.787Z,33.63
2018-10-18T16:10:37.827Z,29.90
2018-10-18T16:13:41.619Z,30.20
2018-10-18T16:16:44.611Z,30.57
2018-10-18T16:19:47.572Z,30.00
2018-10-18T16:22:51.415Z,28.75
2018-10-18T16:25:54.659Z,26.93
2018-10-18T16:28:57.815Z,25.70
2018-10-18T16:32:01.462Z,26.55
2018-10-18T16:35:05.472Z,23.40
2018-10-18T16:38:08.533Z,24.45
2018-10-18T16:41:11.825Z,24.25
2018-10-18T16:44:14.790Z,23.65
2018-10-18T16:47:17.674Z,21.30
2018-10-18T16:50:20.651Z,21.93
2018-10-18T16:53:24.391Z,22.73
2018-10-18T16:56:27.447Z,22.55
2018-10-18T16:59:31.066Z,22.52
2018-10-18T17:02:34.039Z,23.95
2018-10-18T17:05:37.683Z,24.07
2018-10-18T17:08:40.747Z,25.62
2018-10-18T17:11:43.737Z,25.82
2018-10-18T17:14:47.167Z,26.75
2018-10-18T17:17:50.364Z,24.63
2018-10-18T17:20:53.453Z,25.50
2018-10-18T17:23:56.503Z,24.63
2018-10-18T17:26:59.517Z,24.52
2018-10-18T17:30:02.861Z,24.25
2018-10-18T17:33:05.891Z,23.47
2018-10-18T17:36:09.431Z,22.80
2018-10-18T17:39:12.395Z,22.85
2018-10-18T17:42:15.734Z,18.95
2018-10-18T17:45:19.259Z,18.85
2018-10-18T17:48:22.420Z,22.58
2018-10-18T17:51:25.584Z,20.97
2018-10-18T17:54:29.233Z,19.45
2018-10-18T17:57:32.858Z,19.80
2018-10-18T18:00:36.139Z,18.00
2018-10-18T18:03:38.967Z,19.23
2018-10-18T18:06:42.545Z,17.80
2018-10-18T18:09:45.818Z,18.40
2018-10-18T18:12:48.846Z,17.07
2018-10-18T18:15:51.856Z,17.95
2018-10-18T18:18:55.083Z,16.05
2018-10-18T18:21:58.376Z,15.98
2018-10-18T18:25:01.491Z,16.17
2018-10-18T18:28:07.018Z,15.70
2018-10-18T18:31:11.878Z,14.45
2018-10-18T18:34:15.347Z,12.98
2018-10-18T18:37:20.750Z,13.30
2018-10-18T18:40:24.403Z,13.45
2018-10-18T18:43:28.671Z,13.40
2018-10-18T18:46:33.263Z,12.18
2018-10-18T18:49:38.814Z,11.63
2018-10-18T18:52:44.455Z,11.20
2018-10-18T18:55:49.499Z,10.35
2018-10-18T18:58:53.888Z,8.88
2018-10-18T19:01:58.174Z,8.15
2018-10-18T19:05:01.775Z,7.70
2018-10-18T19:08:04.903Z,6.60
2018-10-18T19:11:10.354Z,8.13
2018-10-18T19:14:16.052Z,5.97
2018-10-18T19:17:19.686Z,6.28
2018-10-18T19:20:24.719Z,6.30
2018-10-18T19:23:30.211Z,5.60
2018-10-18T19:26:34.316Z,5.78
2018-10-18T19:29:38.742Z,5.17
2018-10-18T19:32:42.487Z,5.10
2018-10-18T19:35:47.268Z,4.72
2018-10-18T19:38:50.863Z,5.17
2018-10-18T19:41:55.515Z,4.05
2018-10-18T19:45:01.224Z,5.17
2018-10-18T19:48:05.440Z,4.80
2018-10-18T19:51:09.163Z,4.22
2018-10-18T19:54:13.367Z,4.70
2018-10-18T19:57:18.503Z,3.77
2018-10-18T20:00:21.264Z,4.42
2018-10-18T20:03:24.986Z,4.37
2018-10-18T20:06:28.777Z,3.95
2018-10-18T20:09:31.716Z,4.20
2018-10-18T20:12:34.470Z,4.08
2018-10-18T20:15:37.266Z,3.27
2018-10-18T20:18:40.292Z,3.40
2018-10-18T20:21:43.071Z,3.37
2018-10-18T20:24:45.920Z,2.47
2018-10-18T20:27:49.862Z,2.70
2018-10-18T20:30:53.392Z,3.17
2018-10-18T20:33:58.814Z,2.90
2018-10-18T20:37:02.738Z,3.10
2018-10-18T20:40:07.791Z,2.87
2018-10-18T20:43:11.455Z,2.85
2018-10-18T20:46:16.710Z,2.40
2018-10-18T20:49:20.706Z,3.17
2018-10-18T20:52:24.352Z,3.15
2018-10-18T20:55:29.158Z,3.95
2018-10-18T20:58:32.818Z,2.52
2018-10-18T21:01:35.678Z,2.60
2018-10-18T21:04:39.207Z,2.37
2018-10-18T21:07:43.248Z,2.65
2018-10-18T21:10:46.707Z,2.42
2018-10-18T21:13:49.566Z,2.77
2018-10-18T21:16:55.667Z,2.50
2018-10-18T21:19:58.582Z,3.37
2018-10-18T21:23:02.550Z,2.17
2018-10-18T21:26:06.170Z,1.80
2018-10-18T21:29:10.695Z,1.98
2018-10-18T21:32:13.588Z,3.40
2018-10-18T21:35:17.357Z,1.92
2018-10-18T21:38:20.735Z,2.60
2018-10-18T21:41:25.078Z,2.25
2018-10-18T21:44:30.363Z,2.80
2018-10-18T21:47:56.015Z,1.40
2018-10-18T21:50:59.527Z,2.40
2018-10-18T22:04:21.114Z,1.90
2018-10-18T22:07:24.774Z,1.62
2018-10-18T22:10:28.411Z,1.72
2018-10-18T22:13:32.783Z,1.57
2018-10-18T22:16:36.479Z,2.12
2018-10-18T22:19:40.871Z,1.50
2018-10-18T22:22:44.867Z,2.02
2018-10-18T22:25:48.591Z,1.72
2018-10-18T22:28:52.109Z,2.35
2018-10-18T22:31:55.118Z,1.62
2018-10-18T23:31:26.966Z,1.60
2018-10-18T23:34:30.349Z,1.67
2018-10-18T23:37:34.890Z,1.92
2018-10-18T23:40:39.782Z,1.82
2018-10-18T23:43:43.694Z,2.42
2018-10-18T23:46:47.463Z,1.80
2018-10-18T23:49:51.573Z,1.70
2018-10-18T23:52:57.238Z,2.05
2018-10-18T23:56:00.307Z,1.80
2018-10-18T23:59:03.783Z,1.60
